sensor_id;sensor_type;location;lat;lon;timestamp;pressure;altitude;pressure_sealevel;temperature;humidity
83483;BME280;73420;32.678;-85.380;2024-03-23T00:54:45;97787.23;;;24.75;32.81
83483;BME280;73420;32.678;-85.380;2024-03-23T00:57:10;97785.27;;;24.54;32.77
83483;BME280;73420;32.678;-85.380;2024-03-23T00:59:36;97785.51;;;24.87;32.70
83483;BME280;73420;32.678;-85.380;2024-03-23T01:02:01;97783.84;;;24.51;32.68
83483;BME280;73420;32.678;-85.380;2024-03-23T01:04:27;97780.21;;;24.58;32.56
83483;BME280;73420;32.678;-85.380;2024-03-23T01:06:52;97779.80;;;24.70;32.36
83483;BME280;73420;32.678;-85.380;2024-03-23T01:09:18;97774.17;;;24.74;32.49
83483;BME280;73420;32.678;-85.380;2024-03-23T01:11:43;97771.56;;;24.75;32.60
83483;BME280;73420;32.678;-85.380;2024-03-23T01:14:09;97776.49;;;24.80;32.47
83483;BME280;73420;32.678;-85.380;2024-03-23T01:16:34;97778.09;;;24.77;32.52
83483;BME280;73420;32.678;-85.380;2024-03-23T01:19:00;97773.77;;;24.63;32.29
83483;BME280;73420;32.678;-85.380;2024-03-23T01:21:25;97767.22;;;25.04;32.48
83483;BME280;73420;32.678;-85.380;2024-03-23T01:23:51;97764.42;;;24.72;32.41
83483;BME280;73420;32.678;-85.380;2024-03-23T01:26:16;97760.22;;;24.71;32.46
83483;BME280;73420;32.678;-85.380;2024-03-23T01:28:42;97760.70;;;24.68;32.48
83483;BME280;73420;32.678;-85.380;2024-03-23T01:31:07;97755.20;;;24.62;32.64
83483;BME280;73420;32.678;-85.380;2024-03-23T01:33:33;97753.88;;;24.40;32.38
83483;BME280;73420;32.678;-85.380;2024-03-23T01:35:58;97749.45;;;24.64;32.38
83483;BME280;73420;32.678;-85.380;2024-03-23T01:38:23;97742.74;;;24.86;32.26
83483;BME280;73420;32.678;-85.380;2024-03-23T01:40:49;97735.06;;;24.56;32.45
83483;BME280;73420;32.678;-85.380;2024-03-23T01:43:14;97733.59;;;24.60;32.63
83483;BME280;73420;32.678;-85.380;2024-03-23T01:45:39;97734.28;;;24.86;32.49
83483;BME280;73420;32.678;-85.380;2024-03-23T01:48:05;97731.47;;;24.57;32.58
83483;BME280;73420;32.678;-85.380;2024-03-23T01:50:31;97734.22;;;25.07;32.37
83483;BME280;73420;32.678;-85.380;2024-03-23T01:52:55;97736.07;;;24.57;32.61
83483;BME280;73420;32.678;-85.380;2024-03-23T01:55:21;97734.20;;;24.61;32.69
83483;BME280;73420;32.678;-85.380;2024-03-23T01:57:47;97736.48;;;24.63;32.58
83483;BME280;73420;32.678;-85.380;2024-03-23T02:00:13;97735.19;;;24.68;32.69
83483;BME280;73420;32.678;-85.380;2024-03-23T02:02:42;97741.57;;;24.93;32.78
83483;BME280;73420;32.678;-85.380;2024-03-23T02:05:04;97743.71;;;24.82;32.88
83483;BME280;73420;32.678;-85.380;2024-03-23T02:07:28;97739.83;;;24.69;32.66
83483;BME280;73420;32.678;-85.380;2024-03-23T02:09:53;97733.32;;;24.59;32.86
83483;BME280;73420;32.678;-85.380;2024-03-23T02:12:19;97734.03;;;24.60;32.94
83483;BME280;73420;32.678;-85.380;2024-03-23T02:14:45;97733.76;;;24.85;32.83
83483;BME280;73420;32.678;-85.380;2024-03-23T02:17:11;97736.93;;;24.59;32.97
83483;BME280;73420;32.678;-85.380;2024-03-23T02:19:37;97732.21;;;25.01;32.55
83483;BME280;73420;32.678;-85.380;2024-03-23T02:22:02;97731.06;;;25.06;32.52
83483;BME280;73420;32.678;-85.380;2024-03-23T02:24:29;97728.99;;;24.64;32.48
83483;BME280;73420;32.678;-85.380;2024-03-23T02:26:52;97732.87;;;25.02;32.62
83483;BME280;73420;32.678;-85.380;2024-03-23T02:29:18;97737.23;;;24.65;32.81
83483;BME280;73420;32.678;-85.380;2024-03-23T02:31:45;97732.96;;;24.82;32.85
83483;BME280;73420;32.678;-85.380;2024-03-23T02:34:09;97729.90;;;24.60;32.91
83483;BME280;73420;32.678;-85.380;2024-03-23T02:36:35;97725.23;;;24.81;32.63
83483;BME280;73420;32.678;-85.380;2024-03-23T02:39:00;97717.77;;;24.83;32.52
83483;BME280;73420;32.678;-85.380;2024-03-23T02:41:26;97716.98;;;24.88;32.50
83483;BME280;73420;32.678;-85.380;2024-03-23T02:43:51;97715.13;;;24.50;32.60
83483;BME280;73420;32.678;-85.380;2024-03-23T02:46:17;97718.35;;;24.28;32.68
83483;BME280;73420;32.678;-85.380;2024-03-23T02:48:42;97720.48;;;24.98;32.48
83483;BME280;73420;32.678;-85.380;2024-03-23T02:51:07;97719.56;;;24.62;32.71
83483;BME280;73420;32.678;-85.380;2024-03-23T02:53:33;97715.75;;;24.73;32.61
83483;BME280;73420;32.678;-85.380;2024-03-23T02:55:58;97714.37;;;24.75;32.59
83483;BME280;73420;32.678;-85.380;2024-03-23T02:58:24;97714.27;;;24.67;32.58
83483;BME280;73420;32.678;-85.380;2024-03-23T03:00:50;97716.94;;;24.62;32.70
83483;BME280;73420;32.678;-85.380;2024-03-23T03:03:15;97716.11;;;24.94;32.58
83483;BME280;73420;32.678;-85.380;2024-03-23T03:05:41;97718.25;;;24.69;32.68
83483;BME280;73420;32.678;-85.380;2024-03-23T03:08:07;97715.34;;;24.89;32.60
83483;BME280;73420;32.678;-85.380;2024-03-23T03:10:31;97711.56;;;24.62;32.57
83483;BME280;73420;32.678;-85.380;2024-03-23T03:12:57;97720.59;;;24.55;32.60
83483;BME280;73420;32.678;-85.380;2024-03-23T03:15:22;97726.83;;;24.82;32.73
83483;BME280;73420;32.678;-85.380;2024-03-23T03:17:48;97728.58;;;25.10;32.70
83483;BME280;73420;32.678;-85.380;2024-03-23T03:20:13;97730.45;;;24.65;32.56
83483;BME280;73420;32.678;-85.380;2024-03-23T03:22:39;97730.98;;;24.55;32.79
83483;BME280;73420;32.678;-85.380;2024-03-23T03:25:05;97731.98;;;23.85;33.67
83483;BME280;73420;32.678;-85.380;2024-03-23T03:27:29;97734.98;;;24.10;33.68
83483;BME280;73420;32.678;-85.380;2024-03-23T03:29:55;97732.65;;;24.06;33.83
83483;BME280;73420;32.678;-85.380;2024-03-23T03:32:21;97732.15;;;24.39;33.38
83483;BME280;73420;32.678;-85.380;2024-03-23T03:34:46;97735.29;;;24.87;33.12
83483;BME280;73420;32.678;-85.380;2024-03-23T03:37:11;97734.88;;;24.49;32.91
83483;BME280;73420;32.678;-85.380;2024-03-23T03:39:38;97735.41;;;24.82;33.14
83483;BME280;73420;32.678;-85.380;2024-03-23T03:42:03;97730.53;;;24.66;33.03
83483;BME280;73420;32.678;-85.380;2024-03-23T03:44:27;97731.62;;;24.77;32.95
83483;BME280;73420;32.678;-85.380;2024-03-23T03:46:52;97735.14;;;24.67;33.05
83483;BME280;73420;32.678;-85.380;2024-03-23T03:49:18;97734.90;;;24.69;33.07
83483;BME280;73420;32.678;-85.380;2024-03-23T03:51:43;97738.28;;;24.54;33.21
83483;BME280;73420;32.678;-85.380;2024-03-23T03:54:09;97742.03;;;24.53;32.98
83483;BME280;73420;32.678;-85.380;2024-03-23T03:56:34;97750.55;;;24.52;33.05
83483;BME280;73420;32.678;-85.380;2024-03-23T03:59:00;97748.25;;;24.66;32.76
83483;BME280;73420;32.678;-85.380;2024-03-23T04:01:25;97748.19;;;24.68;32.67
83483;BME280;73420;32.678;-85.380;2024-03-23T04:03:50;97754.15;;;25.07;32.75
83483;BME280;73420;32.678;-85.380;2024-03-23T04:06:19;97751.84;;;24.48;32.93
83483;BME280;73420;32.678;-85.380;2024-03-23T04:08:41;97752.29;;;24.61;33.15
83483;BME280;73420;32.678;-85.380;2024-03-23T04:11:07;97747.35;;;24.31;33.18
83483;BME280;73420;32.678;-85.380;2024-03-23T04:13:32;97749.57;;;24.06;33.47
83483;BME280;73420;32.678;-85.380;2024-03-23T04:15:57;97756.29;;;24.30;33.23
83483;BME280;73420;32.678;-85.380;2024-03-23T04:18:22;97755.61;;;24.31;33.07
83483;BME280;73420;32.678;-85.380;2024-03-23T04:20:48;97756.90;;;24.42;33.33
83483;BME280;73420;32.678;-85.380;2024-03-23T04:23:13;97759.39;;;24.18;33.44
83483;BME280;73420;32.678;-85.380;2024-03-23T04:25:38;97753.49;;;24.19;33.42
83483;BME280;73420;32.678;-85.380;2024-03-23T04:28:04;97754.09;;;24.33;33.22
83483;BME280;73420;32.678;-85.380;2024-03-23T04:30:29;97752.55;;;24.66;33.16
83483;BME280;73420;32.678;-85.380;2024-03-23T04:32:55;97750.31;;;24.44;33.12
83483;BME280;73420;32.678;-85.380;2024-03-23T04:35:20;97744.87;;;24.96;32.90
83483;BME280;73420;32.678;-85.380;2024-03-23T04:37:46;97742.91;;;24.93;33.01
83483;BME280;73420;32.678;-85.380;2024-03-23T04:40:12;97739.50;;;24.80;33.02
83483;BME280;73420;32.678;-85.380;2024-03-23T04:42:37;97741.70;;;24.64;32.91
83483;BME280;73420;32.678;-85.380;2024-03-23T04:45:02;97751.62;;;24.83;32.98
83483;BME280;73420;32.678;-85.380;2024-03-23T04:47:27;97756.43;;;24.88;32.95
83483;BME280;73420;32.678;-85.380;2024-03-23T04:49:53;97760.51;;;24.58;32.97
83483;BME280;73420;32.678;-85.380;2024-03-23T04:52:18;97760.93;;;24.85;32.90
83483;BME280;73420;32.678;-85.380;2024-03-23T04:54:43;97758.60;;;24.32;33.28
83483;BME280;73420;32.678;-85.380;2024-03-23T04:57:09;97756.95;;;24.99;33.15
83483;BME280;73420;32.678;-85.380;2024-03-23T04:59:34;97753.80;;;24.83;32.91
83483;BME280;73420;32.678;-85.380;2024-03-23T05:01:59;97752.84;;;24.54;32.98
83483;BME280;73420;32.678;-85.380;2024-03-23T05:04:25;97751.16;;;24.84;32.89
83483;BME280;73420;32.678;-85.380;2024-03-23T05:06:50;97748.23;;;24.55;32.87
83483;BME280;73420;32.678;-85.380;2024-03-23T05:09:16;97749.75;;;24.84;32.78
83483;BME280;73420;32.678;-85.380;2024-03-23T05:11:41;97749.50;;;24.62;33.10
83483;BME280;73420;32.678;-85.380;2024-03-23T05:14:07;97748.79;;;24.47;33.09
83483;BME280;73420;32.678;-85.380;2024-03-23T05:16:32;97747.55;;;24.53;33.08
83483;BME280;73420;32.678;-85.380;2024-03-23T05:18:58;97746.74;;;24.51;32.93
83483;BME280;73420;32.678;-85.380;2024-03-23T05:21:23;97743.89;;;24.53;33.07
83483;BME280;73420;32.678;-85.380;2024-03-23T05:23:48;97736.07;;;24.80;32.64
83483;BME280;73420;32.678;-85.380;2024-03-23T05:26:14;97730.65;;;24.75;32.87
83483;BME280;73420;32.678;-85.380;2024-03-23T05:28:38;97729.37;;;24.41;33.16
83483;BME280;73420;32.678;-85.380;2024-03-23T05:31:04;97731.47;;;24.53;33.03
83483;BME280;73420;32.678;-85.380;2024-03-23T05:33:29;97730.05;;;24.49;33.13
83483;BME280;73420;32.678;-85.380;2024-03-23T05:35:57;97729.32;;;24.61;33.26
83483;BME280;73420;32.678;-85.380;2024-03-23T05:38:20;97728.47;;;24.58;33.12
83483;BME280;73420;32.678;-85.380;2024-03-23T05:40:53;97730.29;;;24.61;33.01
83483;BME280;73420;32.678;-85.380;2024-03-23T05:43:11;97724.56;;;24.82;33.01
83483;BME280;73420;32.678;-85.380;2024-03-23T05:45:36;97719.47;;;24.69;32.97
83483;BME280;73420;32.678;-85.380;2024-03-23T05:48:02;97719.18;;;24.75;32.85
83483;BME280;73420;32.678;-85.380;2024-03-23T05:50:27;97713.27;;;24.78;32.79
83483;BME280;73420;32.678;-85.380;2024-03-23T05:52:53;97711.76;;;24.74;32.90
83483;BME280;73420;32.678;-85.380;2024-03-23T05:55:19;97710.43;;;24.79;32.77
83483;BME280;73420;32.678;-85.380;2024-03-23T05:57:44;97708.72;;;24.79;32.84
83483;BME280;73420;32.678;-85.380;2024-03-23T06:00:10;97707.57;;;24.66;32.95
83483;BME280;73420;32.678;-85.380;2024-03-23T06:02:34;97706.15;;;24.97;32.98
83483;BME280;73420;32.678;-85.380;2024-03-23T06:05:00;97706.27;;;24.62;33.10
83483;BME280;73420;32.678;-85.380;2024-03-23T06:07:26;97706.10;;;24.55;33.17
83483;BME280;73420;32.678;-85.380;2024-03-23T06:09:50;97697.05;;;24.61;33.18
83483;BME280;73420;32.678;-85.380;2024-03-23T06:12:16;97689.42;;;24.71;33.04
83483;BME280;73420;32.678;-85.380;2024-03-23T06:14:41;97686.79;;;24.74;32.99
83483;BME280;73420;32.678;-85.380;2024-03-23T06:17:07;97684.02;;;24.81;33.03
83483;BME280;73420;32.678;-85.380;2024-03-23T06:19:33;97683.51;;;24.88;32.82
83483;BME280;73420;32.678;-85.380;2024-03-23T06:21:58;97687.28;;;24.72;32.91
83483;BME280;73420;32.678;-85.380;2024-03-23T06:24:24;97682.93;;;24.74;32.92
83483;BME280;73420;32.678;-85.380;2024-03-23T06:26:49;97685.84;;;24.53;33.15
83483;BME280;73420;32.678;-85.380;2024-03-23T06:29:14;97685.00;;;25.15;33.05
83483;BME280;73420;32.678;-85.380;2024-03-23T06:31:42;97686.23;;;24.95;33.16
83483;BME280;73420;32.678;-85.380;2024-03-23T06:34:06;97678.93;;;24.79;32.94
83483;BME280;73420;32.678;-85.380;2024-03-23T06:36:31;97674.37;;;24.85;33.27
83483;BME280;73420;32.678;-85.380;2024-03-23T06:38:57;97667.60;;;24.77;33.20
83483;BME280;73420;32.678;-85.380;2024-03-23T06:41:22;97673.19;;;24.73;33.63
83483;BME280;73420;32.678;-85.380;2024-03-23T06:43:48;97667.89;;;24.76;33.27
83483;BME280;73420;32.678;-85.380;2024-03-23T06:46:13;97663.91;;;24.99;33.20
83483;BME280;73420;32.678;-85.380;2024-03-23T06:48:38;97657.67;;;24.78;33.52
83483;BME280;73420;32.678;-85.380;2024-03-23T06:51:04;97656.38;;;24.87;33.25
83483;BME280;73420;32.678;-85.380;2024-03-23T06:53:29;97651.21;;;24.89;33.16
83483;BME280;73420;32.678;-85.380;2024-03-23T06:55:54;97648.07;;;24.83;33.16
83483;BME280;73420;32.678;-85.380;2024-03-23T06:58:20;97647.61;;;24.80;33.34
83483;BME280;73420;32.678;-85.380;2024-03-23T07:00:45;97648.58;;;24.87;33.34
83483;BME280;73420;32.678;-85.380;2024-03-23T07:03:10;97649.16;;;24.99;33.17
83483;BME280;73420;32.678;-85.380;2024-03-23T07:05:35;97649.28;;;25.04;33.08
83483;BME280;73420;32.678;-85.380;2024-03-23T07:08:01;97648.29;;;25.11;32.88
83483;BME280;73420;32.678;-85.380;2024-03-23T07:10:26;97645.92;;;24.97;32.75
83483;BME280;73420;32.678;-85.380;2024-03-23T07:12:51;97645.26;;;25.14;32.77
83483;BME280;73420;32.678;-85.380;2024-03-23T07:15:16;97647.84;;;25.11;33.10
83483;BME280;73420;32.678;-85.380;2024-03-23T07:17:41;97650.02;;;25.21;32.81
83483;BME280;73420;32.678;-85.380;2024-03-23T07:20:08;97647.69;;;24.75;32.97
83483;BME280;73420;32.678;-85.380;2024-03-23T07:22:32;97645.43;;;24.89;33.15
83483;BME280;73420;32.678;-85.380;2024-03-23T07:25:00;97642.90;;;24.98;33.47
83483;BME280;73420;32.678;-85.380;2024-03-23T07:27:23;97641.77;;;25.16;33.10
83483;BME280;73420;32.678;-85.380;2024-03-23T07:29:48;97640.93;;;25.26;32.95
83483;BME280;73420;32.678;-85.380;2024-03-23T07:32:14;97638.44;;;24.78;33.00
83483;BME280;73420;32.678;-85.380;2024-03-23T07:34:39;97635.43;;;25.23;33.14
83483;BME280;73420;32.678;-85.380;2024-03-23T07:37:05;97637.79;;;25.31;33.08
83483;BME280;73420;32.678;-85.380;2024-03-23T07:39:31;97633.97;;;25.24;33.03
83483;BME280;73420;32.678;-85.380;2024-03-23T07:41:56;97632.33;;;24.64;33.30
83483;BME280;73420;32.678;-85.380;2024-03-23T07:44:21;97629.13;;;25.23;33.17
83483;BME280;73420;32.678;-85.380;2024-03-23T07:46:46;97629.47;;;25.10;33.35
83483;BME280;73420;32.678;-85.380;2024-03-23T07:49:12;97622.13;;;24.90;33.33
83483;BME280;73420;32.678;-85.380;2024-03-23T07:51:38;97617.90;;;25.20;33.26
83483;BME280;73420;32.678;-85.380;2024-03-23T07:54:03;97615.61;;;25.34;33.05
83483;BME280;73420;32.678;-85.380;2024-03-23T07:56:28;97613.59;;;25.06;33.10
83483;BME280;73420;32.678;-85.380;2024-03-23T07:58:54;97614.83;;;25.28;33.12
83483;BME280;73420;32.678;-85.380;2024-03-23T08:01:19;97613.68;;;25.34;33.09
83483;BME280;73420;32.678;-85.380;2024-03-23T08:03:46;97610.83;;;25.31;33.11
83483;BME280;73420;32.678;-85.380;2024-03-23T08:06:11;97611.68;;;25.36;33.09
83483;BME280;73420;32.678;-85.380;2024-03-23T08:08:35;97607.18;;;25.18;33.08
83483;BME280;73420;32.678;-85.380;2024-03-23T08:11:00;97604.54;;;25.47;33.01
83483;BME280;73420;32.678;-85.380;2024-03-23T08:13:26;97602.03;;;25.37;33.08
83483;BME280;73420;32.678;-85.380;2024-03-23T08:15:51;97598.12;;;24.94;33.24
83483;BME280;73420;32.678;-85.380;2024-03-23T08:18:17;97595.30;;;25.37;33.21
83483;BME280;73420;32.678;-85.380;2024-03-23T08:20:42;97595.78;;;25.32;33.17
83483;BME280;73420;32.678;-85.380;2024-03-23T08:23:08;97596.13;;;25.18;33.35
83483;BME280;73420;32.678;-85.380;2024-03-23T08:25:32;97591.82;;;24.88;33.35
83483;BME280;73420;32.678;-85.380;2024-03-23T08:27:58;97587.48;;;25.24;33.25
83483;BME280;73420;32.678;-85.380;2024-03-23T08:30:22;97586.17;;;24.76;33.46
83483;BME280;73420;32.678;-85.380;2024-03-23T08:32:48;97589.45;;;25.36;33.39
83483;BME280;73420;32.678;-85.380;2024-03-23T08:35:13;97589.39;;;25.21;33.19
83483;BME280;73420;32.678;-85.380;2024-03-23T08:37:38;97594.82;;;25.18;33.31
83483;BME280;73420;32.678;-85.380;2024-03-23T08:40:05;97598.72;;;25.12;33.33
83483;BME280;73420;32.678;-85.380;2024-03-23T08:42:30;97598.77;;;25.08;33.43
83483;BME280;73420;32.678;-85.380;2024-03-23T08:44:55;97596.35;;;25.23;33.15
83483;BME280;73420;32.678;-85.380;2024-03-23T08:47:20;97597.38;;;25.28;33.18
83483;BME280;73420;32.678;-85.380;2024-03-23T08:49:45;97595.68;;;25.24;33.08
83483;BME280;73420;32.678;-85.380;2024-03-23T08:52:11;97594.91;;;25.20;33.15
83483;BME280;73420;32.678;-85.380;2024-03-23T08:54:36;97595.20;;;25.21;33.10
83483;BME280;73420;32.678;-85.380;2024-03-23T08:57:01;97593.91;;;25.23;33.16
83483;BME280;73420;32.678;-85.380;2024-03-23T08:59:26;97600.08;;;25.27;33.10
83483;BME280;73420;32.678;-85.380;2024-03-23T09:01:52;97602.92;;;25.23;33.16
83483;BME280;73420;32.678;-85.380;2024-03-23T09:04:17;97606.01;;;24.64;33.34
83483;BME280;73420;32.678;-85.380;2024-03-23T09:06:43;97607.69;;;25.20;33.22
83483;BME280;73420;32.678;-85.380;2024-03-23T09:09:08;97610.04;;;25.03;33.20
83483;BME280;73420;32.678;-85.380;2024-03-23T09:11:33;97609.45;;;24.70;33.62
83483;BME280;73420;32.678;-85.380;2024-03-23T09:13:58;97610.76;;;25.07;33.30
83483;BME280;73420;32.678;-85.380;2024-03-23T09:16:24;97613.63;;;25.09;33.20
83483;BME280;73420;32.678;-85.380;2024-03-23T09:18:49;97621.98;;;24.39;33.44
83483;BME280;73420;32.678;-85.380;2024-03-23T09:21:15;97624.29;;;24.23;33.82
83483;BME280;73420;32.678;-85.380;2024-03-23T09:23:40;97626.48;;;24.44;33.94
83483;BME280;73420;32.678;-85.380;2024-03-23T09:26:06;97631.76;;;24.34;33.90
83483;BME280;73420;32.678;-85.380;2024-03-23T09:28:31;97634.50;;;24.20;34.03
83483;BME280;73420;32.678;-85.380;2024-03-23T09:31:02;97632.44;;;24.50;33.61
83483;BME280;73420;32.678;-85.380;2024-03-23T09:33:22;97631.63;;;24.50;33.37
83483;BME280;73420;32.678;-85.380;2024-03-23T09:35:47;97634.09;;;24.35;33.56
83483;BME280;73420;32.678;-85.380;2024-03-23T09:38:12;97636.18;;;24.25;33.58
83483;BME280;73420;32.678;-85.380;2024-03-23T09:40:40;97636.56;;;24.40;33.39
83483;BME280;73420;32.678;-85.380;2024-03-23T09:43:06;97638.38;;;24.23;33.47
83483;BME280;73420;32.678;-85.380;2024-03-23T09:45:29;97635.35;;;24.34;33.22
83483;BME280;73420;32.678;-85.380;2024-03-23T09:47:54;97633.05;;;24.21;33.41
83483;BME280;73420;32.678;-85.380;2024-03-23T09:50:18;97633.18;;;24.27;33.53
83483;BME280;73420;32.678;-85.380;2024-03-23T09:52:46;97634.27;;;23.86;33.66
83483;BME280;73420;32.678;-85.380;2024-03-23T09:55:09;97638.97;;;24.03;33.56
83483;BME280;73420;32.678;-85.380;2024-03-23T09:57:35;97645.16;;;23.96;33.80
83483;BME280;73420;32.678;-85.380;2024-03-23T10:00:00;97646.79;;;23.75;33.57
83483;BME280;73420;32.678;-85.380;2024-03-23T10:02:26;97650.84;;;23.64;33.57
83483;BME280;73420;32.678;-85.380;2024-03-23T10:04:51;97654.68;;;23.76;33.60
83483;BME280;73420;32.678;-85.380;2024-03-23T10:07:19;97653.63;;;23.24;34.08
83483;BME280;73420;32.678;-85.380;2024-03-23T10:09:42;97658.93;;;23.25;34.08
83483;BME280;73420;32.678;-85.380;2024-03-23T10:12:10;97662.83;;;23.12;34.04
83483;BME280;73420;32.678;-85.380;2024-03-23T10:14:32;97663.84;;;23.53;33.85
83483;BME280;73420;32.678;-85.380;2024-03-23T10:17:13;97665.79;;;23.01;33.94
83483;BME280;73420;32.678;-85.380;2024-03-23T10:19:30;97670.22;;;23.62;33.41
83483;BME280;73420;32.678;-85.380;2024-03-23T10:21:52;97675.23;;;23.53;33.45
83483;BME280;73420;32.678;-85.380;2024-03-23T10:24:14;97678.17;;;23.50;33.29
83483;BME280;73420;32.678;-85.380;2024-03-23T10:26:39;97683.89;;;23.18;33.64
83483;BME280;73420;32.678;-85.380;2024-03-23T10:29:04;97680.50;;;23.34;33.36
83483;BME280;73420;32.678;-85.380;2024-03-23T10:31:31;97684.73;;;23.37;33.21
83483;BME280;73420;32.678;-85.380;2024-03-23T10:33:56;97695.86;;;23.31;33.17
83483;BME280;73420;32.678;-85.380;2024-03-23T10:36:22;97700.48;;;23.35;33.13
83483;BME280;73420;32.678;-85.380;2024-03-23T10:38:47;97711.50;;;23.27;33.21
83483;BME280;73420;32.678;-85.380;2024-03-23T10:41:12;97717.38;;;23.01;33.46
83483;BME280;73420;32.678;-85.380;2024-03-23T10:43:38;97720.68;;;23.19;33.21
83483;BME280;73420;32.678;-85.380;2024-03-23T10:46:03;97723.17;;;23.29;33.03
83483;BME280;73420;32.678;-85.380;2024-03-23T10:48:28;97726.30;;;23.27;33.09
83483;BME280;73420;32.678;-85.380;2024-03-23T10:50:54;97728.11;;;23.27;33.04
83483;BME280;73420;32.678;-85.380;2024-03-23T10:53:19;97731.08;;;23.26;32.90
83483;BME280;73420;32.678;-85.380;2024-03-23T10:55:44;97730.75;;;23.05;32.93
83483;BME280;73420;32.678;-85.380;2024-03-23T10:58:10;97731.08;;;23.08;32.68
83483;BME280;73420;32.678;-85.380;2024-03-23T11:00:37;97730.16;;;23.13;32.53
83483;BME280;73420;32.678;-85.380;2024-03-23T11:05:30;97733.67;;;23.17;32.54
83483;BME280;73420;32.678;-85.380;2024-03-23T11:07:52;97736.45;;;22.49;33.14
83483;BME280;73420;32.678;-85.380;2024-03-23T11:10:25;97739.70;;;22.70;33.07
83483;BME280;73420;32.678;-85.380;2024-03-23T11:12:42;97739.79;;;22.76;32.72
83483;BME280;73420;32.678;-85.380;2024-03-23T11:15:12;97745.89;;;22.84;32.54
83483;BME280;73420;32.678;-85.380;2024-03-23T11:17:33;97745.11;;;22.86;32.33
83483;BME280;73420;32.678;-85.380;2024-03-23T11:20:00;97743.62;;;23.13;32.45
83483;BME280;73420;32.678;-85.380;2024-03-23T11:22:39;97747.97;;;22.98;32.16
83483;BME280;73420;32.678;-85.380;2024-03-23T11:24:50;97747.16;;;23.22;32.52
83483;BME280;73420;32.678;-85.380;2024-03-23T11:27:16;97752.69;;;22.59;32.42
83483;BME280;73420;32.678;-85.380;2024-03-23T11:29:40;97757.48;;;22.46;32.41
83483;BME280;73420;32.678;-85.380;2024-03-23T11:32:10;97768.24;;;22.77;32.25
83483;BME280;73420;32.678;-85.380;2024-03-23T11:34:34;97770.88;;;22.39;31.95
83483;BME280;73420;32.678;-85.380;2024-03-23T11:37:04;97775.57;;;22.56;31.76
83483;BME280;73420;32.678;-85.380;2024-03-23T11:39:22;97785.39;;;22.12;32.13
83483;BME280;73420;32.678;-85.380;2024-03-23T11:41:49;97789.70;;;21.93;31.93
83483;BME280;73420;32.678;-85.380;2024-03-23T11:44:17;97794.89;;;21.83;32.50
83483;BME280;73420;32.678;-85.380;2024-03-23T11:46:39;97801.06;;;22.26;31.87
83483;BME280;73420;32.678;-85.380;2024-03-23T11:49:04;97804.26;;;22.28;31.85
83483;BME280;73420;32.678;-85.380;2024-03-23T11:51:30;97803.21;;;22.07;31.76
83483;BME280;73420;32.678;-85.380;2024-03-23T11:53:55;97806.09;;;22.13;32.11
83483;BME280;73420;32.678;-85.380;2024-03-23T11:56:20;97812.62;;;22.66;31.87
83483;BME280;73420;32.678;-85.380;2024-03-23T11:58:46;97816.12;;;22.74;31.80
83483;BME280;73420;32.678;-85.380;2024-03-23T12:01:11;97819.50;;;22.79;31.74
83483;BME280;73420;32.678;-85.380;2024-03-23T12:03:37;97819.08;;;22.40;31.69
83483;BME280;73420;32.678;-85.380;2024-03-23T12:06:03;97817.00;;;22.74;31.73
83483;BME280;73420;32.678;-85.380;2024-03-23T12:08:30;97816.73;;;22.91;31.63
83483;BME280;73420;32.678;-85.380;2024-03-23T12:11:04;97820.60;;;22.90;31.45
83483;BME280;73420;32.678;-85.380;2024-03-23T12:13:20;97822.67;;;22.93;31.40
83483;BME280;73420;32.678;-85.380;2024-03-23T12:15:45;97828.02;;;22.46;31.63
83483;BME280;73420;32.678;-85.380;2024-03-23T12:18:10;97836.85;;;23.01;31.58
83483;BME280;73420;32.678;-85.380;2024-03-23T12:20:34;97845.39;;;22.28;31.58
83483;BME280;73420;32.678;-85.380;2024-03-23T12:23:05;97848.28;;;22.95;31.47
83483;BME280;73420;32.678;-85.380;2024-03-23T12:25:25;97852.19;;;22.75;31.38
83483;BME280;73420;32.678;-85.380;2024-03-23T12:27:51;97862.93;;;22.50;31.41
83483;BME280;73420;32.678;-85.380;2024-03-23T12:30:16;97870.01;;;22.62;31.44
83483;BME280;73420;32.678;-85.380;2024-03-23T12:32:41;97881.67;;;22.54;31.35
83483;BME280;73420;32.678;-85.380;2024-03-23T12:35:07;97884.28;;;22.78;31.11
83483;BME280;73420;32.678;-85.380;2024-03-23T12:37:32;97890.43;;;22.89;30.94
83483;BME280;73420;32.678;-85.380;2024-03-23T12:39:58;97896.21;;;22.89;31.27
83483;BME280;73420;32.678;-85.380;2024-03-23T12:42:23;97900.13;;;22.68;31.38
83483;BME280;73420;32.678;-85.380;2024-03-23T12:44:49;97905.80;;;22.30;31.44
83483;BME280;73420;32.678;-85.380;2024-03-23T12:47:14;97905.31;;;22.23;31.33
83483;BME280;73420;32.678;-85.380;2024-03-23T12:49:39;97914.32;;;22.12;31.28
83483;BME280;73420;32.678;-85.380;2024-03-23T12:52:06;97911.70;;;22.16;31.17
83483;BME280;73420;32.678;-85.380;2024-03-23T12:54:30;97917.14;;;22.15;31.19
83483;BME280;73420;32.678;-85.380;2024-03-23T12:56:56;97919.59;;;22.46;31.05
83483;BME280;73420;32.678;-85.380;2024-03-23T12:59:21;97923.09;;;22.71;31.12
83483;BME280;73420;32.678;-85.380;2024-03-23T13:01:47;97926.86;;;22.54;30.70
83483;BME280;73420;32.678;-85.380;2024-03-23T13:04:12;97932.98;;;22.33;30.84
83483;BME280;73420;32.678;-85.380;2024-03-23T13:06:38;97936.19;;;22.26;30.64
83483;BME280;73420;32.678;-85.380;2024-03-23T13:09:03;97940.67;;;22.28;30.88
83483;BME280;73420;32.678;-85.380;2024-03-23T13:11:29;97946.16;;;22.12;30.90
83483;BME280;73420;32.678;-85.380;2024-03-23T13:13:54;97951.50;;;21.85;31.09
83483;BME280;73420;32.678;-85.380;2024-03-23T13:16:19;97951.94;;;21.73;31.53
83483;BME280;73420;32.678;-85.380;2024-03-23T13:18:45;97955.28;;;22.13;30.76
83483;BME280;73420;32.678;-85.380;2024-03-23T13:21:10;97957.02;;;22.19;31.03
83483;BME280;73420;32.678;-85.380;2024-03-23T13:23:36;97963.12;;;22.07;30.96
83483;BME280;73420;32.678;-85.380;2024-03-23T13:26:01;97963.95;;;21.92;30.91